Terminal Aerodrome Forecast
Issued by NWS

Current Version | Previous Version | Text Only | Print | Product List | Glossary On
Versions: 1 2 3 4 5 6 7 8 9 10 11 12 13 14 15
000
FTUS44 KOUN 251136
TAFPNC
TAF
KPNC 251136Z 2512/2612 08005KT P6SM SKC
      TEMPO 2512/2515 4SM BR
     FM251500 18009KT P6SM FEW250
     FM252200 34008KT P6SM BKN120
     FM260600 06006KT P6SM SCT120=

USA.gov is the U.S. government's official web portal to all federal, state and local government web resources and services.